Cabazon, California
Current Conditions -  °F | °C
As of 12:53 PM on Saturday 20 Dec 2014 (Local Time) from KPSP Reporting Station
Clear Clear  
Wind Chill: 65°   Ceiling: Unl
Heat Index: 65°   Visibility: 10mi
Dew Point: 38°   Wind: 3mph
Humidity: 37%   Direction: 110°ESE
Pressure: 30.11"   Gusts: NA
Location:  33.92°N, 116.79°W
Report Text: KPSP 202053Z 11003KT 10SM CLR 18/03 A3011 RMK AO2 SLP197 T01830033 56026
Loading
Personal Weather Stations






























Interactive Weather Map New forecast layout! Learn more

10-Day Weather Forecast

Advertisements
Track Severe Weather on mobile